Terminal Aerodrome Forecast
Issued by NWS Wakefield, VA

Home | Current Version | Previous Version | Text Only | Print | Product List | Glossary On
Versions: 1 2 3 4 5 6 7 8 9 10 11 12
000
FTUS41 KAKQ 302331
TAFRIC
TAF
KRIC 302331Z 3100/3124 28009KT P6SM SKC
     FM310900 23004KT P6SM BKN150
     FM311500 23014G24KT P6SM SCT250
     FM311800 23022G30KT P6SM SCT080
     FM312200 25017G22KT P6SM SCT080=

USA.gov is the U.S. government's official web portal to all federal, state and local government web resources and services.